Time;durP1;ratioP1;P1;durP2;ratioP2;P2;SDS_P1;SDS_P2;PMS_P1;PMS_P2;Temp;Humidity;BMP_temperature;BMP_pressure;BME280_temperature;BME280_humidity;BME280_pressure;Samples;Min_cycle;Max_cycle;Signal;HPM_P1;HPM_P2
2021/09/06 00:00:51;;;;;;;;;;;;;;;21.40;58.11;102040.56;5015594;28;1799;-63
2021/09/06 00:03:16;;;;;;;;;;;;;;;21.38;58.03;102042.56;5015162;28;878;-63
2021/09/06 00:05:41;;;;;;;;;;;;;;;21.37;57.47;102032.69;5015406;28;907;-63
2021/09/06 00:08:07;;;;;;;;;;;;;;;21.35;57.61;102027.41;5015270;28;1044;-63
2021/09/06 00:10:32;;;;;;;;;;;;;;;21.35;58.17;102030.13;5015401;28;1954;-63
2021/09/06 00:12:57;;;;;;;;;;;;;;;21.34;58.27;102030.25;5018748;28;2024;-62
2021/09/06 00:15:22;;;;;;;;;;;;;;;21.33;57.98;102028.53;5019232;28;1009;-62
2021/09/06 00:17:47;;;;;;;;;;;;;;;21.31;58.07;102027.88;5019115;28;978;-62
2021/09/06 00:20:12;;;;;;;;;;;;;;;21.29;57.39;102033.41;5019621;28;1621;-63
2021/09/06 00:22:37;;;;;;;;;;;;;;;21.28;58.28;102039.84;5017973;28;1301;-63
2021/09/06 00:25:02;;;;;;;;;;;;;;;21.28;57.85;102033.56;5019009;28;1974;-63
2021/09/06 00:27:27;;;;;;;;;;;;;;;21.26;57.89;102035.56;5018877;28;2031;-62
2021/09/06 00:29:52;;;;;;;;;;;;;;;21.25;58.14;102044.69;5019056;28;1954;-62
2021/09/06 00:32:17;;;;;;;;;;;;;;;21.25;57.81;102025.69;5019289;28;946;-62
2021/09/06 00:34:42;;;;;;;;;;;;;;;21.23;58.24;102031.25;5017991;28;1653;-63
2021/09/06 00:37:08;;;;;;;;;;;;;;;21.21;58.12;102019.69;5017213;28;914;-63
2021/09/06 00:39:33;;;;;;;;;;;;;;;21.21;57.62;102021.53;5018641;28;1739;-62
2021/09/06 00:41:58;;;;;;;;;;;;;;;21.19;57.80;102026.22;5018613;28;933;-62
2021/09/06 00:44:23;;;;;;;;;;;;;;;21.18;58.04;102027.22;5018977;28;1858;-62
2021/09/06 00:46:48;;;;;;;;;;;;;;;21.16;57.93;102027.34;5019068;28;872;-62
2021/09/06 00:49:13;;;;;;;;;;;;;;;21.15;57.92;102026.50;5018807;28;856;-62
2021/09/06 00:51:38;;;;;;;;;;;;;;;21.14;57.92;102022.06;5018497;28;1968;-63
2021/09/06 00:54:03;;;;;;;;;;;;;;;21.13;57.84;102025.78;5018804;28;986;-62
2021/09/06 00:56:28;;;;;;;;;;;;;;;21.12;58.34;102029.50;5018150;28;874;-62
2021/09/06 00:58:53;;;;;;;;;;;;;;;21.10;57.80;102026.06;5018720;28;828;-62
2021/09/06 01:01:18;;;;;;;;;;;;;;;21.10;57.87;102026.06;5018679;28;1183;-62
2021/09/06 01:03:43;;;;;;;;;;;;;;;21.08;57.91;102027.19;5018407;28;973;-63
2021/09/06 01:06:09;;;;;;;;;;;;;;;21.07;57.85;102029.06;5018215;28;2122;-63
2021/09/06 01:08:34;;;;;;;;;;;;;;;21.06;58.18;102024.63;5018739;28;1666;-63
2021/09/06 01:10:59;;;;;;;;;;;;;;;21.04;57.95;102021.19;5018393;28;1968;-63
2021/09/06 01:13:24;;;;;;;;;;;;;;;21.03;58.55;102019.47;5018388;28;890;-62
2021/09/06 01:15:49;;;;;;;;;;;;;;;21.02;58.07;102020.47;5017920;28;962;-63
2021/09/06 01:18:14;;;;;;;;;;;;;;;21.00;58.42;102029.72;5017848;28;1515;-61
2021/09/06 01:20:39;;;;;;;;;;;;;;;21.00;57.75;102024.31;5017961;28;1935;-60
2021/09/06 01:23:04;;;;;;;;;;;;;;;20.99;58.38;102030.72;5016428;28;2073;-60
2021/09/06 01:25:29;;;;;;;;;;;;;;;20.98;58.07;102029.00;5017658;28;1013;-61
2021/09/06 01:27:54;;;;;;;;;;;;;;;20.96;58.29;102026.44;5018249;28;939;-61
2021/09/06 01:30:19;;;;;;;;;;;;;;;20.96;57.80;102022.91;5017771;28;1914;-61
2021/09/06 01:32:44;;;;;;;;;;;;;;;20.95;58.54;102038.31;5018065;28;1701;-61
2021/09/06 01:35:10;;;;;;;;;;;;;;;20.93;57.92;102031.31;5017410;28;938;-62
2021/09/06 01:37:35;;;;;;;;;;;;;;;20.91;58.59;102036.00;5017861;28;850;-61
2021/09/06 01:40:00;;;;;;;;;;;;;;;20.91;58.12;102030.56;5017318;28;2129;-61
2021/09/06 01:42:25;;;;;;;;;;;;;;;20.90;58.54;102029.72;5017636;28;2107;-61
2021/09/06 01:44:50;;;;;;;;;;;;;;;20.89;58.11;102029.84;5017596;28;1034;-61
2021/09/06 01:47:15;;;;;;;;;;;;;;;20.87;58.46;102035.41;5018103;28;914;-61
2021/09/06 01:49:40;;;;;;;;;;;;;;;20.86;57.99;102035.53;5017565;28;1940;-61
2021/09/06 01:52:05;;;;;;;;;;;;;;;20.85;58.28;102026.56;5016162;28;3177;-61
2021/09/06 01:54:30;;;;;;;;;;;;;;;20.84;58.09;102024.84;5017384;28;1013;-61
2021/09/06 01:56:55;;;;;;;;;;;;;;;20.82;57.76;102026.81;5017643;28;1053;-61
2021/09/06 01:59:20;;;;;;;;;;;;;;;20.80;58.38;102026.97;5016824;28;2028;-61
2021/09/06 02:01:45;;;;;;;;;;;;;;;20.80;58.26;102029.66;5017720;28;1273;-62
2021/09/06 02:04:10;;;;;;;;;;;;;;;20.79;58.51;102021.69;5017159;28;2130;-63
2021/09/06 02:06:36;;;;;;;;;;;;;;;20.77;58.18;102023.69;5017141;28;930;-63
2021/09/06 02:09:01;;;;;;;;;;;;;;;20.76;58.41;102012.00;5017323;28;1026;-63
2021/09/06 02:11:26;;;;;;;;;;;;;;;20.76;58.61;102013.84;5016670;28;1918;-63
2021/09/06 02:13:51;;;;;;;;;;;;;;;20.74;58.50;102019.41;5017288;28;828;-61
2021/09/06 02:16:16;;;;;;;;;;;;;;;20.72;58.08;102012.41;5016750;28;1196;-61
2021/09/06 02:18:42;;;;;;;;;;;;;;;20.71;58.70;102025.09;5017249;28;2000;-62
2021/09/06 02:21:07;;;;;;;;;;;;;;;20.70;58.16;102017.94;5015405;28;902;-61
2021/09/06 02:23:32;;;;;;;;;;;;;;;20.70;58.50;102020.66;5016876;28;902;-64
2021/09/06 02:25:57;;;;;;;;;;;;;;;20.69;58.04;102020.78;5016684;28;949;-63
2021/09/06 02:28:22;;;;;;;;;;;;;;;20.65;58.13;102020.22;5016529;28;1895;-63
2021/09/06 02:30:47;;;;;;;;;;;;;;;20.66;57.80;102018.34;5016665;28;1901;-62
2021/09/06 02:33:12;;;;;;;;;;;;;;;20.65;58.31;102020.22;5016611;28;899;-62
2021/09/06 02:35:37;;;;;;;;;;;;;;;20.65;58.17;102019.34;5016633;28;855;-62
2021/09/06 02:38:02;;;;;;;;;;;;;;;20.62;57.78;102023.19;5016686;28;852;-62
2021/09/06 02:40:27;;;;;;;;;;;;;;;20.62;57.89;102025.88;5016723;28;1995;-63
2021/09/06 02:42:53;;;;;;;;;;;;;;;20.62;57.84;102033.16;5016538;28;1035;-63
2021/09/06 02:45:18;;;;;;;;;;;;;;;20.61;57.80;102031.44;5016870;28;1010;-63
2021/09/06 02:47:43;;;;;;;;;;;;;;;20.60;58.46;102032.47;5016342;28;927;-61
2021/09/06 02:50:08;;;;;;;;;;;;;;;20.59;58.22;102031.59;5016849;28;1894;-61
2021/09/06 02:52:33;;;;;;;;;;;;;;;20.58;58.35;102029.88;5016451;28;897;-63
2021/09/06 02:54:58;;;;;;;;;;;;;;;20.58;58.43;102039.88;5016579;28;1169;-63
2021/09/06 02:57:23;;;;;;;;;;;;;;;20.57;58.42;102035.44;5016586;28;1053;-62
2021/09/06 02:59:48;;;;;;;;;;;;;;;20.56;58.27;102041.84;5016220;28;1886;-63
2021/09/06 03:02:13;;;;;;;;;;;;;;;20.54;57.82;102035.69;5015865;28;1999;-63
2021/09/06 03:04:38;;;;;;;;;;;;;;;20.53;58.18;102033.97;5016375;28;1029;-63
2021/09/06 03:07:03;;;;;;;;;;;;;;;20.51;58.44;102034.13;5016181;28;895;-63
2021/09/06 03:09:28;;;;;;;;;;;;;;;20.50;58.20;102029.69;5016176;28;928;-63
2021/09/06 03:11:53;;;;;;;;;;;;;;;20.52;58.42;102040.38;5016244;28;1969;-63
2021/09/06 03:14:18;;;;;;;;;;;;;;;20.48;57.85;102026.25;5016090;28;898;-63
2021/09/06 03:16:44;;;;;;;;;;;;;;;20.48;57.43;102031.66;5015777;28;1228;-63
2021/09/06 03:19:10;;;;;;;;;;;;;;;20.47;58.01;102029.97;5015657;28;1859;-63
2021/09/06 03:21:35;;;;;;;;;;;;;;;20.47;57.55;102037.22;5016062;28;944;-63
2021/09/06 03:24:00;;;;;;;;;;;;;;;20.45;57.82;102031.94;5015908;28;1094;-63
2021/09/06 03:26:25;;;;;;;;;;;;;;;20.44;58.44;102028.38;5015995;28;1001;-64
2021/09/06 03:28:51;;;;;;;;;;;;;;;20.42;57.92;102022.22;5015914;28;926;-63
2021/09/06 03:31:16;;;;;;;;;;;;;;;20.43;57.75;102026.66;5015561;28;1955;-63
2021/09/06 03:33:41;;;;;;;;;;;;;;;20.41;57.99;102023.25;5015835;28;1006;-63
2021/09/06 03:36:06;;;;;;;;;;;;;;;20.41;58.14;102020.53;5015465;28;1522;-64
2021/09/06 03:38:31;;;;;;;;;;;;;;;20.41;58.04;102019.69;5015046;28;1935;-63
2021/09/06 03:40:56;;;;;;;;;;;;;;;20.39;57.94;102014.41;5015637;28;997;-63
2021/09/06 03:43:21;;;;;;;;;;;;;;;20.37;58.36;102015.53;5015660;28;846;-63
2021/09/06 03:45:47;;;;;;;;;;;;;;;20.36;58.20;102017.38;5014932;28;858;-62
2021/09/06 03:48:12;;;;;;;;;;;;;;;20.35;58.12;102015.63;5015166;28;2098;-62
2021/09/06 03:50:37;;;;;;;;;;;;;;;20.36;58.22;102013.78;5015404;28;1940;-62
2021/09/06 03:53:03;;;;;;;;;;;;;;;20.34;58.12;102015.75;5015365;28;857;-61
2021/09/06 03:55:28;;;;;;;;;;;;;;;20.33;58.14;102008.63;5015354;28;2086;-61
2021/09/06 03:57:53;;;;;;;;;;;;;;;20.31;57.67;102008.75;5014949;28;1703;-61
2021/09/06 04:00:19;;;;;;;;;;;;;;;20.30;57.93;102015.16;5015648;28;1413;-61
2021/09/06 04:02:44;;;;;;;;;;;;;;;20.30;57.52;102009.75;5015544;28;1084;-61
2021/09/06 04:05:09;;;;;;;;;;;;;;;20.29;57.75;102012.59;5015452;28;954;-61
2021/09/06 04:07:34;;;;;;;;;;;;;;;20.28;58.18;102021.69;5015471;28;1478;-61
2021/09/06 04:09:59;;;;;;;;;;;;;;;20.28;57.70;102016.28;5015032;28;1968;-61
2021/09/06 04:12:24;;;;;;;;;;;;;;;20.25;58.39;102012.00;5015482;28;938;-62
2021/09/06 04:14:51;;;;;;;;;;;;;;;20.26;58.33;102013.69;5015090;28;1976;-62
2021/09/06 04:17:16;;;;;;;;;;;;;;;20.25;57.45;102012.00;5013671;28;1974;-62
2021/09/06 04:19:41;;;;;;;;;;;;;;;20.23;58.34;102019.41;5015372;28;950;-62
2021/09/06 04:22:06;;;;;;;;;;;;;;;20.23;58.08;102024.81;5015384;28;1061;-62
2021/09/06 04:24:31;;;;;;;;;;;;;;;20.23;57.65;102024.81;5014887;28;1009;-62
2021/09/06 04:26:56;;;;;;;;;;;;;;;20.21;57.49;102026.81;5015280;28;1614;-62
2021/09/06 04:29:21;;;;;;;;;;;;;;;20.20;57.74;102030.50;5015193;28;858;-62
2021/09/06 04:31:46;;;;;;;;;;;;;;;20.20;58.40;102035.06;5014659;28;1949;-60
2021/09/06 04:34:11;;;;;;;;;;;;;;;20.18;58.65;102032.47;5014694;28;1708;-60
2021/09/06 04:36:37;;;;;;;;;;;;;;;20.18;57.61;102043.31;5015134;28;1499;-63
2021/09/06 04:39:02;;;;;;;;;;;;;;;20.16;57.72;102037.16;5015129;28;997;-63
2021/09/06 04:41:27;;;;;;;;;;;;;;;20.17;58.32;102040.72;5014976;28;1685;-62
2021/09/06 04:43:52;;;;;;;;;;;;;;;20.16;57.84;102039.00;5014550;28;1985;-61
2021/09/06 04:46:17;;;;;;;;;;;;;;;20.16;57.93;102042.56;5014880;28;1653;-64
2021/09/06 04:48:42;;;;;;;;;;;;;;;20.19;58.24;102050.44;5014650;28;1660;-63
2021/09/06 04:51:07;;;;;;;;;;;;;;;20.19;59.11;102045.03;5014726;28;1890;-64
2021/09/06 04:53:32;;;;;;;;;;;;;;;20.19;58.68;102055.84;5013729;28;1565;-63
2021/09/06 04:55:57;;;;;;;;;;;;;;;20.20;59.23;102045.88;5014328;28;1064;-65
2021/09/06 04:58:22;;;;;;;;;;;;;;;20.21;59.62;102048.47;5017446;28;960;-64
2021/09/06 05:00:47;;;;;;;;;;;;;;;20.26;59.79;102053.44;5017819;28;1975;-66
2021/09/06 05:03:12;;;;;;;;;;;;;;;20.22;59.96;102044.75;5018464;28;1013;-66
2021/09/06 05:05:37;;;;;;;;;;;;;;;20.20;60.16;102052.16;5016858;28;2038;-64
2021/09/06 05:08:03;;;;;;;;;;;;;;;20.20;59.76;102057.56;5018404;28;1037;-64
2021/09/06 05:10:28;;;;;;;;;;;;;;;20.18;60.50;102053.28;5018068;28;1902;-62
2021/09/06 05:12:53;;;;;;;;;;;;;;;20.13;60.05;102060.94;5018409;28;1014;-63
2021/09/06 05:15:18;;;;;;;;;;;;;;;20.08;60.21;102059.47;5017670;28;1897;-62
2021/09/06 05:17:43;;;;;;;;;;;;;;;20.10;59.83;102059.34;5017063;28;1657;-62
2021/09/06 05:20:08;;;;;;;;;;;;;;;20.13;58.90;102060.94;5017481;28;1610;-62
2021/09/06 05:22:33;;;;;;;;;;;;;;;20.11;59.16;102066.47;5017493;28;1701;-62
2021/09/06 05:24:58;;;;;;;;;;;;;;;20.11;58.79;102067.31;5017516;28;1732;-62
2021/09/06 05:27:23;;;;;;;;;;;;;;;20.14;58.86;102071.63;5017505;28;1681;-62
2021/09/06 05:29:48;;;;;;;;;;;;;;;20.16;58.29;102074.19;5017369;28;1898;-62
2021/09/06 05:32:13;;;;;;;;;;;;;;;20.14;58.65;102068.91;5017492;28;1669;-62
2021/09/06 05:34:39;;;;;;;;;;;;;;;20.17;58.29;102067.78;5016020;28;1693;-62
2021/09/06 05:37:04;;;;;;;;;;;;;;;20.18;59.13;102070.38;5009236;28;1674;-62
2021/09/06 05:39:29;;;;;;;;;;;;;;;20.19;58.61;102069.38;5017919;28;855;-62
2021/09/06 05:41:54;;;;;;;;;;;;;;;20.16;58.80;102074.19;5017489;28;997;-63
2021/09/06 05:44:19;;;;;;;;;;;;;;;20.16;58.75;102076.91;5017824;28;978;-62
2021/09/06 05:46:44;;;;;;;;;;;;;;;20.16;58.82;102080.47;5017595;28;1020;-62
2021/09/06 05:49:09;;;;;;;;;;;;;;;20.18;58.64;102078.50;5017031;28;2147;-62
2021/09/06 05:51:34;;;;;;;;;;;;;;;20.20;58.81;102081.06;5016655;28;1890;-62
2021/09/06 05:53:59;;;;;;;;;;;;;;;20.22;58.29;102092.63;5016096;28;1428;-62
2021/09/06 05:56:24;;;;;;;;;;;;;;;20.23;58.53;102095.22;5017687;28;966;-62
2021/09/06 05:58:49;;;;;;;;;;;;;;;20.25;58.10;102095.03;5017354;28;932;-62
2021/09/06 06:01:15;;;;;;;;;;;;;;;20.25;58.06;102093.19;5017206;28;1729;-62
2021/09/06 06:03:40;;;;;;;;;;;;;;;20.28;58.53;102101.06;5017635;28;875;-62
2021/09/06 06:06:05;;;;;;;;;;;;;;;20.31;57.88;102102.66;5017218;28;922;-62
2021/09/06 06:08:30;;;;;;;;;;;;;;;20.33;57.94;102100.69;5016129;28;1927;-62
2021/09/06 06:10:55;;;;;;;;;;;;;;;20.34;57.97;102105.97;5016675;28;1954;-62
2021/09/06 06:13:20;;;;;;;;;;;;;;;20.32;58.40;102105.22;5017319;28;874;-62
2021/09/06 06:15:45;;;;;;;;;;;;;;;20.36;58.49;102106.72;5017008;28;1300;-62
2021/09/06 06:18:10;;;;;;;;;;;;;;;20.39;58.72;102102.91;5017290;28;1669;-62
2021/09/06 06:20:35;;;;;;;;;;;;;;;20.45;58.16;102107.75;5016995;28;922;-62
2021/09/06 06:23:00;;;;;;;;;;;;;;;20.51;57.91;102114.50;5016743;28;997;-62
2021/09/06 06:25:25;;;;;;;;;;;;;;;20.51;58.26;102104.53;5016638;28;1046;-62
2021/09/06 06:27:51;;;;;;;;;;;;;;;20.52;58.04;102116.22;5016292;28;1822;-62
2021/09/06 06:30:16;;;;;;;;;;;;;;;20.53;57.71;102123.34;5016061;28;1894;-62
2021/09/06 06:32:41;;;;;;;;;;;;;;;20.56;58.40;102123.97;5016329;28;1815;-62
2021/09/06 06:35:06;;;;;;;;;;;;;;;20.61;57.60;102118.97;5016357;28;1046;-62
2021/09/06 06:37:31;;;;;;;;;;;;;;;20.65;57.31;102125.84;5014810;28;958;-62
2021/09/06 06:39:56;;;;;;;;;;;;;;;20.69;57.41;102129.16;5016425;28;894;-63
2021/09/06 06:42:21;;;;;;;;;;;;;;;20.73;58.08;102130.63;5016139;28;1005;-62
2021/09/06 06:44:46;;;;;;;;;;;;;;;20.77;58.01;102132.06;5015864;28;1887;-62
2021/09/06 06:47:11;;;;;;;;;;;;;;;20.79;58.07;102127.34;5015960;28;2074;-62
2021/09/06 06:49:36;;;;;;;;;;;;;;;20.81;57.22;102122.66;5015908;28;1850;-62
2021/09/06 06:52:02;;;;;;;;;;;;;;;20.81;58.25;102125.34;5015838;28;1894;-62
2021/09/06 06:54:27;;;;;;;;;;;;;;;20.83;57.61;102126.09;5015992;28;784;-62
2021/09/06 06:56:52;;;;;;;;;;;;;;;20.88;57.34;102123.84;5015807;28;808;-62
2021/09/06 06:59:17;;;;;;;;;;;;;;;20.89;57.50;102122.84;5015826;28;1002;-62
2021/09/06 07:01:42;;;;;;;;;;;;;;;20.94;58.14;102127.88;5015502;28;1062;-62
2021/09/06 07:04:07;;;;;;;;;;;;;;;20.93;57.89;102135.13;5015499;28;1821;-62
2021/09/06 07:06:32;;;;;;;;;;;;;;;20.95;57.76;102130.44;5015119;28;1798;-62
2021/09/06 07:08:57;;;;;;;;;;;;;;;20.96;57.37;102129.41;5015622;28;990;-62
2021/09/06 07:11:24;;;;;;;;;;;;;;;20.97;58.00;102130.28;5015600;28;1956;-62
2021/09/06 07:13:49;;;;;;;;;;;;;;;20.98;57.83;102132.84;5015687;28;819;-62
2021/09/06 07:16:14;;;;;;;;;;;;;;;21.03;57.82;102135.16;5015479;28;773;-62
2021/09/06 07:18:39;;;;;;;;;;;;;;;21.05;57.84;102136.75;5015855;28;990;-62
2021/09/06 07:21:05;;;;;;;;;;;;;;;21.08;57.42;102135.63;5014617;28;895;-62
2021/09/06 07:23:30;;;;;;;;;;;;;;;21.11;57.57;102135.38;5015318;28;1768;-62
2021/09/06 07:25:55;;;;;;;;;;;;;;;21.10;58.12;102134.50;5015718;28;989;-62
2021/09/06 07:28:20;;;;;;;;;;;;;;;21.07;57.68;102134.78;5015389;28;891;-62
2021/09/06 07:30:45;;;;;;;;;;;;;;;21.09;57.51;102140.91;5014974;28;1951;-62
2021/09/06 07:33:10;;;;;;;;;;;;;;;21.11;57.80;102136.22;5015230;28;946;-62
2021/09/06 07:35:35;;;;;;;;;;;;;;;21.10;58.09;102144.50;5015400;28;1110;-62
2021/09/06 07:38:00;;;;;;;;;;;;;;;21.20;57.69;102144.53;5014951;28;1797;-62
2021/09/06 07:40:25;;;;;;;;;;;;;;;21.25;57.98;102150.41;5014781;28;1818;-62
2021/09/06 07:42:50;;;;;;;;;;;;;;;21.27;58.01;102151.16;5014889;28;1750;-62
2021/09/06 07:45:15;;;;;;;;;;;;;;;21.30;57.65;102162.59;5015206;28;986;-62
2021/09/06 07:47:40;;;;;;;;;;;;;;;21.33;57.68;102169.56;5015198;28;919;-62
2021/09/06 07:50:05;;;;;;;;;;;;;;;21.30;57.72;102161.72;5015367;28;1949;-62
2021/09/06 07:52:30;;;;;;;;;;;;;;;21.29;57.90;102166.28;5014938;28;780;-62
2021/09/06 07:54:56;;;;;;;;;;;;;;;21.30;58.08;102168.00;5014754;28;1945;-62
2021/09/06 07:57:21;;;;;;;;;;;;;;;21.36;57.36;102169.28;5014999;28;943;-62
2021/09/06 07:59:46;;;;;;;;;;;;;;;21.39;58.01;102179.88;5014770;28;1344;-63
2021/09/06 08:02:11;;;;;;;;;;;;;;;21.40;58.17;102168.03;5014743;28;1816;-62
2021/09/06 08:04:36;;;;;;;;;;;;;;;21.39;58.34;102177.16;5015265;28;1041;-62
2021/09/06 08:07:01;;;;;;;;;;;;;;;21.39;57.93;102177.16;5015041;28;903;-62
2021/09/06 08:09:26;;;;;;;;;;;;;;;21.39;58.56;102179.88;5014754;28;796;-62
2021/09/06 08:11:51;;;;;;;;;;;;;;;21.35;58.15;102176.56;5014774;28;1914;-62
2021/09/06 08:14:17;;;;;;;;;;;;;;;21.42;58.27;102185.03;5014641;28;1478;-62
2021/09/06 08:16:42;;;;;;;;;;;;;;;21.41;58.02;102186.03;5014796;28;851;-62
2021/09/06 08:19:07;;;;;;;;;;;;;;;21.29;58.67;102181.69;5014837;28;839;-62
2021/09/06 08:21:32;;;;;;;;;;;;;;;21.32;58.06;102186.81;5014664;28;1571;-62
2021/09/06 08:23:58;;;;;;;;;;;;;;;21.23;58.61;102183.09;5014961;28;816;-62
2021/09/06 08:26:23;;;;;;;;;;;;;;;21.38;58.59;102187.16;5014722;28;800;-62
2021/09/06 08:28:48;;;;;;;;;;;;;;;21.49;58.33;102191.63;5014550;28;819;-62
2021/09/06 08:31:13;;;;;;;;;;;;;;;21.53;58.12;102192.19;5014420;28;1894;-62
2021/09/06 08:33:38;;;;;;;;;;;;;;;21.54;58.47;102192.03;5018278;28;1886;-62
2021/09/06 08:36:03;;;;;;;;;;;;;;;21.54;58.50;102192.03;5018628;28;855;-62
2021/09/06 08:38:28;;;;;;;;;;;;;;;21.61;58.53;102197.78;5018694;28;1088;-62
2021/09/06 08:40:53;;;;;;;;;;;;;;;21.63;57.89;102204.81;5018499;28;1851;-62
2021/09/06 08:43:18;;;;;;;;;;;;;;;21.65;57.95;102207.38;5018125;28;1818;-62
2021/09/06 08:45:44;;;;;;;;;;;;;;;21.63;58.08;102204.81;5018314;28;1065;-62
2021/09/06 08:48:09;;;;;;;;;;;;;;;21.60;58.17;102207.78;5018500;28;870;-62
2021/09/06 08:50:35;;;;;;;;;;;;;;;21.62;58.40;102205.78;5018307;28;1957;-62
2021/09/06 08:53:00;;;;;;;;;;;;;;;21.64;58.29;102213.81;5018345;28;1860;-62
2021/09/06 08:55:25;;;;;;;;;;;;;;;21.66;58.36;102218.09;5018114;28;836;-62
2021/09/06 08:57:50;;;;;;;;;;;;;;;21.64;58.32;102225.50;5018122;28;847;-62
2021/09/06 09:00:15;;;;;;;;;;;;;;;21.71;58.29;102225.81;5018064;28;1819;-62
2021/09/06 09:02:41;;;;;;;;;;;;;;;21.70;58.35;102224.94;5017909;28;1069;-62
2021/09/06 09:05:07;;;;;;;;;;;;;;;21.60;58.79;102225.91;5018165;28;760;-62
2021/09/06 09:07:32;;;;;;;;;;;;;;;21.67;58.24;102217.09;5018056;28;894;-62
2021/09/06 09:09:57;;;;;;;;;;;;;;;21.68;58.05;102226.06;5017861;28;1979;-62
2021/09/06 09:12:23;;;;;;;;;;;;;;;21.70;58.26;102219.50;5017931;28;1034;-62
2021/09/06 09:14:48;;;;;;;;;;;;;;;21.75;58.24;102230.81;5017604;28;1879;-62
2021/09/06 09:17:13;;;;;;;;;;;;;;;21.63;58.01;102229.22;5017646;28;804;-62
2021/09/06 09:19:38;;;;;;;;;;;;;;;21.69;58.18;102223.22;5016598;28;1820;-63
2021/09/06 09:22:03;;;;;;;;;;;;;;;21.73;57.94;102223.81;5017750;28;1059;-62
2021/09/06 09:24:28;;;;;;;;;;;;;;;21.70;57.97;102219.50;5017192;28;1520;-62
2021/09/06 09:26:53;;;;;;;;;;;;;;;21.71;57.82;102221.22;5018139;28;1649;-62
2021/09/06 09:29:18;;;;;;;;;;;;;;;21.65;57.75;102216.38;5017383;28;1644;-62
2021/09/06 09:31:43;;;;;;;;;;;;;;;21.68;57.16;102218.78;5017487;28;1870;-62
2021/09/06 09:34:08;;;;;;;;;;;;;;;21.70;57.39;102219.50;5017521;28;2014;-62
2021/09/06 09:36:34;;;;;;;;;;;;;;;21.61;58.00;102214.94;5017629;28;1002;-62
2021/09/06 09:38:59;;;;;;;;;;;;;;;21.62;57.69;102213.94;5017623;28;856;-62
2021/09/06 09:41:24;;;;;;;;;;;;;;;21.67;57.60;102208.97;5017493;28;2006;-62
2021/09/06 09:43:49;;;;;;;;;;;;;;;21.67;57.73;102214.38;5016167;28;1441;-62
2021/09/06 09:46:14;;;;;;;;;;;;;;;21.58;57.55;102209.78;5015846;28;1009;-61
2021/09/06 09:48:41;;;;;;;;;;;;;;;21.64;57.47;102220.09;5016838;28;1292;-61
2021/09/06 09:51:06;;;;;;;;;;;;;;;21.62;57.62;102216.66;5015640;28;1894;-61
2021/09/06 09:53:31;;;;;;;;;;;;;;;21.68;57.62;102223.34;5017189;28;1988;-61
2021/09/06 09:55:56;;;;;;;;;;;;;;;21.47;57.95;102218.88;5016837;28;1985;-61
2021/09/06 09:58:21;;;;;;;;;;;;;;;21.58;57.85;102215.19;5017249;28;954;-61
2021/09/06 10:00:46;;;;;;;;;;;;;;;21.56;57.50;102217.19;5014674;28;1778;-61
2021/09/06 10:03:11;;;;;;;;;;;;;;;21.55;57.87;102211.91;5016816;28;1564;-61
2021/09/06 10:05:36;;;;;;;;;;;;;;;21.52;57.69;102204.88;5016990;28;1884;-61
2021/09/06 10:08:01;;;;;;;;;;;;;;;21.50;58.04;102203.34;5016393;28;1724;-61
2021/09/06 10:10:27;;;;;;;;;;;;;;;21.52;58.03;102196.75;5016394;28;1918;-61
2021/09/06 10:12:52;;;;;;;;;;;;;;;21.46;57.80;102198.19;5016511;28;1646;-61
2021/09/06 10:15:17;;;;;;;;;;;;;;;21.56;57.68;102186.50;5016153;28;1851;-61
2021/09/06 10:17:52;;;;;;;;;;;;;;;21.63;57.20;102185.81;5016412;28;796;-61
2021/09/06 10:20:17;;;;;;;;;;;;;;;21.59;57.15;102184.38;5016654;28;835;-62
2021/09/06 10:22:42;;;;;;;;;;;;;;;21.62;57.34;102188.66;5016128;28;1766;-61
2021/09/06 10:25:07;;;;;;;;;;;;;;;21.64;57.37;102187.53;5016257;28;1333;-61
2021/09/06 10:27:35;;;;;;;;;;;;;;;21.61;57.47;102179.66;5016491;28;788;-61
2021/09/06 10:30:00;;;;;;;;;;;;;;;21.56;57.81;102172.94;5016120;28;1959;-61
2021/09/06 10:32:25;;;;;;;;;;;;;;;21.58;57.59;102177.22;5016250;28;1449;-60
2021/09/06 10:34:50;;;;;;;;;;;;;;;21.55;57.32;102185.63;5016456;28;1478;-62
2021/09/06 10:37:15;;;;;;;;;;;;;;;21.54;57.23;102192.03;5027846;28;1414;-62
2021/09/06 10:39:41;;;;;;;;;;;;;;;21.47;57.77;102180.91;5016165;28;1001;-62
2021/09/06 10:42:06;;;;;;;;;;;;;;;21.51;57.51;102183.31;5026650;28;1412;-62
2021/09/06 10:44:31;;;;;;;;;;;;;;;21.58;57.53;102182.66;5035806;28;857;-63
2021/09/06 10:46:56;;;;;;;;;;;;;;;21.63;57.63;102193.09;5034114;28;1685;-62
2021/09/06 10:49:21;;;;;;;;;;;;;;;21.63;57.96;102183.09;5016418;28;1778;-62
2021/09/06 10:51:46;;;;;;;;;;;;;;;21.68;57.80;102179.94;5016055;28;1893;-62
2021/09/06 10:54:11;;;;;;;;;;;;;;;21.69;57.87;102178.94;5015946;28;1747;-62
2021/09/06 10:56:36;;;;;;;;;;;;;;;21.54;58.57;102174.91;5016460;28;1061;-62
2021/09/06 10:59:01;;;;;;;;;;;;;;;21.45;59.01;102187.47;5015992;28;1552;-62
2021/09/06 11:01:26;;;;;;;;;;;;;;;21.58;58.26;102185.34;5015285;28;1600;-62
2021/09/06 11:03:52;;;;;;;;;;;;;;;21.67;58.12;102198.09;5015739;28;1735;-62
2021/09/06 11:06:17;;;;;;;;;;;;;;;21.70;58.13;102196.94;5002129;28;1495;-62
2021/09/06 11:08:42;;;;;;;;;;;;;;;21.74;58.39;102199.25;5003124;28;1962;-62
2021/09/06 11:11:07;;;;;;;;;;;;;;;21.78;58.56;102195.28;5015611;28;1978;-61
2021/09/06 11:13:33;;;;;;;;;;;;;;;22.81;57.42;102189.31;5016179;28;891;-70
2021/09/06 11:15:58;;;;;;;;;;;;;;;22.40;57.89;102185.91;5015861;28;1692;-69
2021/09/06 11:18:23;;;;;;;;;;;;;;;22.05;58.27;102191.91;5015472;28;1784;-70
2021/09/06 11:20:48;;;;;;;;;;;;;;;21.90;58.41;102182.41;5015607;28;1781;-70
2021/09/06 11:23:13;;;;;;;;;;;;;;;21.90;58.89;102187.84;5003887;28;1678;-70
2021/09/06 11:25:38;;;;;;;;;;;;;;;21.87;58.96;102190.84;5011081;28;1796;-70
2021/09/06 11:28:03;;;;;;;;;;;;;;;21.76;58.94;102180.97;5001993;28;1594;-69
2021/09/06 11:30:28;;;;;;;;;;;;;;;21.80;58.97;102181.56;5015532;28;1890;-70
2021/09/06 11:32:54;;;;;;;;;;;;;;;21.68;58.37;102185.38;5016276;28;1683;-70
2021/09/06 11:35:19;;;;;;;;;;;;;;;21.67;57.88;102176.41;5015633;28;974;-70
2021/09/06 11:37:44;;;;;;;;;;;;;;;21.75;57.74;102187.41;5015277;28;2019;-70
2021/09/06 11:40:09;;;;;;;;;;;;;;;21.87;57.52;102190.84;5015294;28;1037;-69
2021/09/06 11:42:34;;;;;;;;;;;;;;;21.89;57.61;102179.84;5015176;28;965;-69
2021/09/06 11:45:01;;;;;;;;;;;;;;;21.87;57.85;102181.84;5015166;28;872;-70
2021/09/06 11:47:26;;;;;;;;;;;;;;;21.81;57.59;102186.00;5014788;28;1773;-69
2021/09/06 11:49:51;;;;;;;;;;;;;;;21.92;57.13;102188.56;5015061;28;800;-69
2021/09/06 11:52:18;;;;;;;;;;;;;;;21.92;56.58;102190.44;5015233;28;1902;-69
2021/09/06 11:54:43;;;;;;;;;;;;;;;21.91;57.13;102196.84;5015321;28;839;-69
2021/09/06 11:57:08;;;;;;;;;;;;;;;21.80;56.97;102182.41;5015006;28;1778;-69
2021/09/06 11:59:33;;;;;;;;;;;;;;;21.91;56.70;102177.84;5014916;28;827;-69
2021/09/06 12:01:58;;;;;;;;;;;;;;;21.97;56.81;102171.88;5015276;28;1357;-69
2021/09/06 12:04:23;;;;;;;;;;;;;;;22.02;56.45;102166.91;5014772;28;1975;-69
2021/09/06 12:06:48;;;;;;;;;;;;;;;22.00;56.26;102172.47;5014276;28;938;-69
2021/09/06 12:09:13;;;;;;;;;;;;;;;22.03;56.17;102179.50;5014889;28;1878;-69
2021/09/06 12:11:38;;;;;;;;;;;;;;;22.00;56.13;102177.06;5013588;28;1914;-69
2021/09/06 12:14:06;;;;;;;;;;;;;;;22.02;56.24;102175.06;5014817;28;1073;-69
2021/09/06 12:16:31;;;;;;;;;;;;;;;22.03;56.65;102163.19;5014605;28;760;-69
2021/09/06 12:18:57;;;;;;;;;;;;;;;22.05;56.53;102172.03;5015204;28;946;-69
2021/09/06 12:21:24;;;;;;;;;;;;;;;22.01;55.46;102179.63;5014898;28;863;-69
2021/09/06 12:23:52;;;;;;;;;;;;;;;22.07;55.50;102173.63;5014348;28;1884;-69
2021/09/06 12:26:17;;;;;;;;;;;;;;;22.08;55.38;102179.91;5014570;28;1933;-69
2021/09/06 12:28:42;;;;;;;;;;;;;;;22.10;55.20;102172.47;5013494;28;1641;-69
2021/09/06 12:31:07;;;;;;;;;;;;;;;22.11;54.82;102175.06;5013104;28;1965;-69
2021/09/06 12:33:32;;;;;;;;;;;;;;;22.08;55.22;102179.91;5014605;28;828;-69
2021/09/06 12:35:57;;;;;;;;;;;;;;;22.06;55.67;102174.63;5013073;28;820;-70
2021/09/06 12:38:22;;;;;;;;;;;;;;;22.11;55.75;102174.19;5014658;28;946;-69